createdAt,value
2022-10-09T00:00:49.847Z,7.90
2022-10-09T00:03:17.708Z,7.90
2022-10-09T00:05:45.130Z,7.90
2022-10-09T00:08:11.667Z,7.90
2022-10-09T00:10:44.179Z,7.90
2022-10-09T00:13:11.305Z,7.90
2022-10-09T00:15:41.635Z,7.90
2022-10-09T00:18:09.346Z,7.80
2022-10-09T00:20:37.052Z,7.90
2022-10-09T00:23:03.564Z,7.90
2022-10-09T00:25:30.100Z,7.80
2022-10-09T00:27:57.391Z,7.80
2022-10-09T00:30:23.910Z,7.80
2022-10-09T00:32:50.642Z,7.70
2022-10-09T00:35:17.374Z,7.80
2022-10-09T00:37:43.938Z,7.80
2022-10-09T00:40:10.556Z,7.80
2022-10-09T00:42:37.061Z,7.80
2022-10-09T00:45:04.196Z,7.80
2022-10-09T00:47:38.302Z,7.80
2022-10-09T00:50:24.840Z,7.80
2022-10-09T00:52:57.549Z,7.80
2022-10-09T00:55:24.695Z,7.70
2022-10-09T00:57:51.736Z,7.60
2022-10-09T01:00:18.447Z,7.60
2022-10-09T01:02:45.000Z,7.50
2022-10-09T01:05:11.736Z,7.50
2022-10-09T01:07:58.540Z,7.50
2022-10-09T01:10:30.091Z,7.50
2022-10-09T01:12:59.676Z,7.40
2022-10-09T01:15:40.630Z,7.30
2022-10-09T01:18:22.468Z,7.30
2022-10-09T01:20:51.398Z,7.30
2022-10-09T01:23:34.820Z,7.20
2022-10-09T01:26:16.398Z,7.20
2022-10-09T01:28:44.897Z,7.10
2022-10-09T01:31:12.220Z,7.10
2022-10-09T01:33:39.316Z,7.10
2022-10-09T01:36:07.311Z,7.10
2022-10-09T01:38:34.679Z,7.10
2022-10-09T01:41:02.973Z,7.00
2022-10-09T01:43:29.523Z,7.00
2022-10-09T01:46:16.012Z,7.00
2022-10-09T01:48:42.731Z,6.90
2022-10-09T01:51:09.290Z,6.90
2022-10-09T01:53:36.459Z,6.80
2022-10-09T01:56:07.464Z,6.80
2022-10-09T01:58:54.240Z,6.80
2022-10-09T02:01:29.135Z,6.80
2022-10-09T02:03:56.968Z,6.80
2022-10-09T02:06:23.737Z,6.80
2022-10-09T02:08:51.748Z,6.80
2022-10-09T02:11:18.402Z,6.80
2022-10-09T02:13:46.705Z,6.70
2022-10-09T02:16:16.307Z,6.70
2022-10-09T02:18:45.411Z,6.70
2022-10-09T02:21:16.357Z,6.70
2022-10-09T02:23:44.017Z,6.60
2022-10-09T02:26:11.433Z,6.60
2022-10-09T02:28:40.463Z,6.60
2022-10-09T02:31:13.439Z,6.60
2022-10-09T02:33:40.008Z,6.60
2022-10-09T02:36:06.659Z,6.50
2022-10-09T02:38:33.231Z,6.50
2022-10-09T02:41:00.532Z,6.50
2022-10-09T02:43:27.464Z,6.50
2022-10-09T02:45:53.981Z,6.50
2022-10-09T02:48:21.270Z,6.40
2022-10-09T02:50:47.890Z,6.50
2022-10-09T02:53:14.554Z,6.40
2022-10-09T02:55:41.687Z,6.40
2022-10-09T02:58:08.284Z,6.40
2022-10-09T03:00:34.815Z,6.30
2022-10-09T03:03:01.390Z,6.30
2022-10-09T03:05:27.944Z,6.30
2022-10-09T03:07:54.477Z,6.20
2022-10-09T03:10:21.271Z,6.30
2022-10-09T03:12:48.524Z,6.20
2022-10-09T03:15:15.456Z,6.20
2022-10-09T03:17:42.134Z,6.20
2022-10-09T03:20:09.021Z,6.10
2022-10-09T03:22:35.558Z,6.00
2022-10-09T03:25:02.130Z,5.90
2022-10-09T03:27:30.695Z,6.00
2022-10-09T03:29:58.498Z,6.00
2022-10-09T03:32:25.420Z,6.10
2022-10-09T03:34:51.976Z,6.00
2022-10-09T03:37:18.570Z,6.00
2022-10-09T03:39:45.111Z,6.00
2022-10-09T03:42:11.639Z,5.90
2022-10-09T03:44:38.196Z,5.90
2022-10-09T03:47:04.768Z,5.90
2022-10-09T03:49:31.286Z,5.90
2022-10-09T03:51:57.810Z,5.80
2022-10-09T03:54:24.329Z,5.80
2022-10-09T03:56:50.850Z,5.80
2022-10-09T03:59:17.378Z,5.80
2022-10-09T04:01:43.898Z,5.80
2022-10-09T04:04:10.389Z,5.80
2022-10-09T04:06:36.911Z,5.80
2022-10-09T04:09:03.621Z,5.80
2022-10-09T04:11:30.157Z,5.80
2022-10-09T04:13:56.672Z,5.70
2022-10-09T04:16:23.219Z,5.70
2022-10-09T04:18:49.850Z,5.70
2022-10-09T04:21:16.414Z,5.70
2022-10-09T04:23:42.921Z,5.60
2022-10-09T04:26:10.705Z,5.60
2022-10-09T04:28:37.332Z,5.60
2022-10-09T04:31:04.160Z,5.70
2022-10-09T04:33:30.722Z,5.60
2022-10-09T04:35:57.566Z,5.60
2022-10-09T04:38:24.834Z,5.60
2022-10-09T04:40:58.475Z,5.60
2022-10-09T04:43:25.223Z,5.60
2022-10-09T04:45:51.889Z,5.60
2022-10-09T04:48:18.719Z,5.60
2022-10-09T04:50:45.397Z,5.60
2022-10-09T04:53:11.988Z,5.60
2022-10-09T04:55:39.632Z,5.60
2022-10-09T04:58:06.399Z,5.50
2022-10-09T05:00:32.930Z,5.50
2022-10-09T05:02:59.537Z,5.50
2022-10-09T05:05:26.110Z,5.40
2022-10-09T05:07:52.636Z,5.40
2022-10-09T05:10:19.187Z,5.40
2022-10-09T05:12:45.940Z,5.80
2022-10-09T05:15:13.180Z,5.40
2022-10-09T05:17:39.898Z,5.40
2022-10-09T05:20:06.856Z,5.40
2022-10-09T05:22:33.402Z,5.40
2022-10-09T05:24:59.929Z,5.40
2022-10-09T05:27:26.431Z,5.40
2022-10-09T05:29:53.034Z,5.40
2022-10-09T05:32:19.560Z,5.40
2022-10-09T05:34:46.178Z,5.40
2022-10-09T05:37:12.779Z,5.40
2022-10-09T05:39:39.473Z,5.40
2022-10-09T05:42:05.989Z,5.40
2022-10-09T05:44:32.597Z,5.40
2022-10-09T05:46:59.127Z,5.40
2022-10-09T05:49:25.733Z,5.40
2022-10-09T05:51:52.272Z,5.40
2022-10-09T05:54:18.829Z,5.50
2022-10-09T05:56:45.423Z,5.50
2022-10-09T05:59:14.868Z,5.50
2022-10-09T06:01:43.193Z,5.60
2022-10-09T06:04:13.970Z,5.60
2022-10-09T06:06:41.260Z,5.70
2022-10-09T06:09:08.832Z,5.80
2022-10-09T06:11:36.249Z,5.90
2022-10-09T06:14:03.966Z,5.90
2022-10-09T06:16:31.442Z,6.00
2022-10-09T06:18:58.330Z,6.00
2022-10-09T06:21:26.390Z,6.10
2022-10-09T06:23:54.452Z,6.30
2022-10-09T06:26:21.865Z,6.60
2022-10-09T06:28:48.817Z,6.90
2022-10-09T06:31:19.350Z,7.30
2022-10-09T06:33:46.646Z,7.70
2022-10-09T06:36:14.711Z,8.10
2022-10-09T06:38:41.777Z,8.40
2022-10-09T06:41:09.954Z,8.60
2022-10-09T06:43:36.926Z,8.70
2022-10-09T06:46:05.156Z,9.00
2022-10-09T06:48:32.630Z,9.30
2022-10-09T06:51:02.253Z,9.50
2022-10-09T06:53:29.311Z,9.90
2022-10-09T06:55:57.222Z,10.10
2022-10-09T06:58:24.056Z,10.40
2022-10-09T07:00:50.615Z,10.80
2022-10-09T07:03:17.162Z,10.90
2022-10-09T07:05:43.699Z,11.30
2022-10-09T07:08:10.250Z,11.50
2022-10-09T07:10:36.763Z,12.00
2022-10-09T07:13:03.298Z,12.10
2022-10-09T07:15:29.927Z,12.40
2022-10-09T07:17:56.491Z,12.70
2022-10-09T07:20:23.093Z,12.90
2022-10-09T07:22:49.910Z,13.10
2022-10-09T07:25:16.785Z,13.50
2022-10-09T07:27:43.301Z,13.70
2022-10-09T07:30:10.038Z,13.80
2022-10-09T07:32:36.578Z,14.00
2022-10-09T07:35:03.189Z,14.60
2022-10-09T07:37:29.766Z,15.00
2022-10-09T07:39:56.276Z,15.50
2022-10-09T07:42:22.799Z,15.50
2022-10-09T07:44:49.310Z,15.80
2022-10-09T07:47:15.849Z,16.30
2022-10-09T07:49:42.422Z,16.70
2022-10-09T07:52:08.962Z,17.50
2022-10-09T07:54:35.481Z,17.90
2022-10-09T07:57:02.230Z,18.40
2022-10-09T07:59:28.762Z,18.50
2022-10-09T08:01:55.315Z,19.50
2022-10-09T08:04:21.917Z,20.60
2022-10-09T08:06:49.526Z,20.70
2022-10-09T08:09:17.726Z,21.30
2022-10-09T08:11:44.520Z,21.20
2022-10-09T08:14:16.591Z,21.10
2022-10-09T08:16:45.506Z,21.60
2022-10-09T08:19:12.037Z,21.30
2022-10-09T08:21:38.585Z,21.50
2022-10-09T08:24:05.289Z,21.20
2022-10-09T08:26:31.931Z,21.00
2022-10-09T08:28:59.755Z,21.50
2022-10-09T08:31:26.790Z,21.60
2022-10-09T08:33:57.084Z,21.60
2022-10-09T08:36:23.983Z,22.00
2022-10-09T08:38:50.981Z,22.60
2022-10-09T08:41:32.530Z,23.20
2022-10-09T08:44:03.473Z,23.80
2022-10-09T08:46:35.256Z,24.30
2022-10-09T08:49:03.488Z,25.30
2022-10-09T08:51:33.212Z,25.80
2022-10-09T08:54:06.481Z,26.40
2022-10-09T08:56:33.153Z,27.30
2022-10-09T08:59:01.757Z,27.90
2022-10-09T09:01:37.513Z,28.70
2022-10-09T09:04:13.221Z,29.50
2022-10-09T09:06:47.741Z,29.80
2022-10-09T09:09:34.501Z,29.50
2022-10-09T09:12:05.034Z,30.20
2022-10-09T09:14:31.534Z,29.60
2022-10-09T09:17:16.873Z,30.20
2022-10-09T09:20:08.902Z,30.20
2022-10-09T09:22:35.853Z,30.50
2022-10-09T09:25:13.475Z,31.50
2022-10-09T09:27:40.808Z,30.70
2022-10-09T09:30:14.779Z,30.70
2022-10-09T09:32:49.311Z,31.70
2022-10-09T09:35:28.295Z,32.30
2022-10-09T09:37:54.957Z,32.00
2022-10-09T09:40:36.170Z,32.20
2022-10-09T09:43:05.292Z,32.20
2022-10-09T09:45:31.933Z,32.40
2022-10-09T09:48:03.327Z,32.50
2022-10-09T09:50:48.723Z,32.80
2022-10-09T09:53:28.014Z,32.40
2022-10-09T09:55:55.337Z,32.30
2022-10-09T09:58:22.511Z,32.10
2022-10-09T10:00:56.910Z,32.10
2022-10-09T10:03:24.038Z,31.80
2022-10-09T10:05:50.657Z,32.70
2022-10-09T10:08:33.045Z,32.10
2022-10-09T10:11:00.859Z,32.00
2022-10-09T10:13:27.363Z,33.10
2022-10-09T10:15:55.112Z,33.80
2022-10-09T10:18:23.022Z,33.20
2022-10-09T10:20:51.639Z,33.30
2022-10-09T10:23:21.194Z,33.10
2022-10-09T10:25:47.706Z,32.70
2022-10-09T10:28:17.723Z,32.90
2022-10-09T10:30:44.437Z,33.00
2022-10-09T10:33:19.084Z,32.70
2022-10-09T10:35:45.633Z,32.70
2022-10-09T10:38:13.220Z,32.30
2022-10-09T10:40:46.390Z,32.60
2022-10-09T10:43:31.801Z,32.20
2022-10-09T10:46:02.155Z,32.70
2022-10-09T10:48:30.691Z,32.10
2022-10-09T10:50:57.196Z,31.70
2022-10-09T10:53:41.263Z,31.60
2022-10-09T10:56:19.014Z,31.30
2022-10-09T10:59:04.477Z,31.50
2022-10-09T11:01:31.250Z,31.30
2022-10-09T11:04:36.658Z,31.20
2022-10-09T11:07:21.005Z,30.90
2022-10-09T11:09:52.252Z,31.10
2022-10-09T11:12:47.694Z,30.40
2022-10-09T11:15:16.822Z,30.20
2022-10-09T11:17:58.194Z,30.10
2022-10-09T11:20:36.721Z,29.70
2022-10-09T11:23:09.202Z,29.40
2022-10-09T11:25:43.819Z,29.40
2022-10-09T11:28:24.395Z,29.60
2022-10-09T11:31:09.835Z,29.40
2022-10-09T11:33:45.316Z,29.20
2022-10-09T11:36:11.876Z,29.10
2022-10-09T11:38:42.456Z,28.80
2022-10-09T11:41:09.245Z,29.00
2022-10-09T11:43:41.012Z,28.70
2022-10-09T11:46:10.767Z,29.20
2022-10-09T11:48:56.188Z,29.20
2022-10-09T11:51:34.999Z,29.70
2022-10-09T11:54:03.454Z,29.80
2022-10-09T11:56:32.067Z,29.70
2022-10-09T11:59:03.282Z,29.80
2022-10-09T12:01:44.436Z,30.50
2022-10-09T12:04:14.188Z,31.10
2022-10-09T12:06:47.073Z,30.90
2022-10-09T12:09:22.153Z,31.40
2022-10-09T12:11:59.988Z,31.70
2022-10-09T12:14:29.205Z,31.60
2022-10-09T12:16:56.507Z,31.80
2022-10-09T12:19:23.436Z,31.20
2022-10-09T12:21:52.025Z,31.80
2022-10-09T12:24:23.773Z,31.80
2022-10-09T12:26:51.291Z,31.70
2022-10-09T12:29:21.556Z,32.00
2022-10-09T12:31:50.505Z,31.90
2022-10-09T12:34:22.850Z,31.80
2022-10-09T12:36:49.356Z,31.80
2022-10-09T12:39:20.754Z,32.20
2022-10-09T12:41:49.441Z,31.40
2022-10-09T12:44:24.840Z,31.30
2022-10-09T12:46:51.520Z,31.30
2022-10-09T12:49:24.265Z,31.00
2022-10-09T12:51:55.373Z,31.30
2022-10-09T12:54:24.986Z,30.90
2022-10-09T12:56:55.258Z,30.10
2022-10-09T12:59:22.739Z,30.20
2022-10-09T13:01:50.016Z,30.30
2022-10-09T13:04:25.654Z,30.40
2022-10-09T13:06:52.706Z,30.10
2022-10-09T13:09:24.587Z,29.80
2022-10-09T13:11:53.092Z,29.70
2022-10-09T13:14:28.170Z,29.20
2022-10-09T13:16:54.841Z,28.70
2022-10-09T13:19:29.311Z,27.90
2022-10-09T13:22:01.716Z,27.40
2022-10-09T13:24:29.547Z,27.30
2022-10-09T13:26:56.116Z,26.80
2022-10-09T13:29:22.690Z,26.90
2022-10-09T13:31:49.321Z,26.90
2022-10-09T13:34:16.398Z,26.80
2022-10-09T13:36:42.917Z,26.40
2022-10-09T13:39:15.734Z,26.20
2022-10-09T13:41:43.283Z,25.50
2022-10-09T13:44:09.896Z,25.50
2022-10-09T13:46:36.413Z,25.50
2022-10-09T13:49:03.058Z,25.30
2022-10-09T13:51:31.888Z,24.70
2022-10-09T13:53:58.441Z,24.50
2022-10-09T13:56:26.041Z,24.20
2022-10-09T13:58:52.575Z,23.90
2022-10-09T14:01:19.346Z,23.40
2022-10-09T14:03:46.015Z,23.10
2022-10-09T14:06:12.529Z,22.90
2022-10-09T14:08:39.110Z,22.70
2022-10-09T14:11:05.972Z,22.70
2022-10-09T14:13:32.718Z,22.70
2022-10-09T14:15:59.265Z,22.60
2022-10-09T14:18:26.014Z,22.70
2022-10-09T14:20:52.594Z,22.30
2022-10-09T14:23:19.245Z,22.10
2022-10-09T14:25:45.763Z,22.00
2022-10-09T14:28:12.366Z,21.80
2022-10-09T14:30:42.399Z,21.90
2022-10-09T14:33:09.182Z,21.60
2022-10-09T14:35:35.730Z,21.40
2022-10-09T14:38:02.241Z,21.90
2022-10-09T14:40:28.761Z,21.60
2022-10-09T14:42:55.274Z,21.30
2022-10-09T14:45:21.793Z,20.80
2022-10-09T14:47:48.308Z,20.40
2022-10-09T14:50:14.998Z,20.40
2022-10-09T14:52:42.186Z,20.40
2022-10-09T14:55:08.815Z,20.20
2022-10-09T14:57:35.872Z,20.00
2022-10-09T15:00:04.251Z,19.90
2022-10-09T15:02:30.874Z,19.80
2022-10-09T15:04:57.419Z,19.80
2022-10-09T15:07:24.541Z,19.60
2022-10-09T15:09:51.053Z,19.30
2022-10-09T15:12:17.575Z,19.10
2022-10-09T15:14:44.106Z,18.90
2022-10-09T15:17:10.644Z,18.80
2022-10-09T15:19:37.717Z,18.60
2022-10-09T15:22:04.586Z,18.40
2022-10-09T15:24:31.088Z,18.30
2022-10-09T15:26:57.666Z,18.30
2022-10-09T15:29:24.190Z,18.30
2022-10-09T15:31:51.585Z,18.30
2022-10-09T15:34:18.978Z,18.10
2022-10-09T15:36:46.148Z,18.00
2022-10-09T15:39:13.409Z,18.00
2022-10-09T15:41:40.885Z,17.90
2022-10-09T15:44:09.043Z,17.80
2022-10-09T15:46:35.590Z,17.80
2022-10-09T15:49:02.107Z,17.60
2022-10-09T15:51:29.972Z,17.50
2022-10-09T15:53:58.212Z,17.50
2022-10-09T15:56:25.085Z,17.30
2022-10-09T15:58:52.373Z,17.10
2022-10-09T16:01:19.396Z,17.10
2022-10-09T16:03:45.996Z,17.10
2022-10-09T16:06:14.660Z,17.10
2022-10-09T16:08:41.705Z,17.00
2022-10-09T16:11:09.896Z,17.00
2022-10-09T16:13:39.816Z,16.90
2022-10-09T16:16:07.361Z,16.90
2022-10-09T16:18:33.959Z,16.90
2022-10-09T16:21:12.128Z,16.60
2022-10-09T16:23:38.674Z,16.50
2022-10-09T16:26:05.323Z,16.40
2022-10-09T16:28:32.554Z,16.30
2022-10-09T16:30:59.406Z,16.20
2022-10-09T16:33:26.385Z,16.10
2022-10-09T16:35:52.961Z,16.10
2022-10-09T16:38:19.768Z,16.00
2022-10-09T16:41:03.139Z,16.00
2022-10-09T16:43:32.439Z,15.90
2022-10-09T16:46:08.075Z,15.80
2022-10-09T16:48:34.598Z,15.70
2022-10-09T16:51:01.106Z,15.70
2022-10-09T16:53:27.623Z,15.60
2022-10-09T16:55:54.162Z,15.50
2022-10-09T16:58:20.670Z,15.40
2022-10-09T17:00:47.267Z,15.30
2022-10-09T17:03:13.797Z,15.20
2022-10-09T17:05:40.309Z,15.10
2022-10-09T17:08:06.827Z,15.00
2022-10-09T17:10:33.378Z,14.90
2022-10-09T17:12:59.885Z,14.80
2022-10-09T17:15:26.393Z,14.70
2022-10-09T17:17:52.988Z,14.60
2022-10-09T17:20:19.601Z,14.60
2022-10-09T17:22:46.164Z,14.50
2022-10-09T17:25:14.025Z,14.30
2022-10-09T17:27:40.532Z,14.30
2022-10-09T17:30:07.511Z,14.30
2022-10-09T17:32:34.019Z,14.20
2022-10-09T17:35:00.547Z,14.00
2022-10-09T17:37:27.068Z,14.00
2022-10-09T17:39:53.643Z,14.40
2022-10-09T17:42:20.156Z,13.90
2022-10-09T17:44:48.382Z,13.90
2022-10-09T17:47:14.894Z,13.80
2022-10-09T17:49:41.474Z,13.80
2022-10-09T17:52:08.276Z,13.80
2022-10-09T17:54:34.845Z,13.70
2022-10-09T17:57:01.522Z,13.60
2022-10-09T17:59:28.153Z,13.50
2022-10-09T18:01:54.714Z,13.50
2022-10-09T18:04:21.645Z,13.40
2022-10-09T18:06:48.318Z,13.40
2022-10-09T18:09:15.242Z,13.40
2022-10-09T18:11:42.508Z,13.30
2022-10-09T18:14:09.775Z,13.40
2022-10-09T18:16:37.931Z,13.30
2022-10-09T18:19:11.392Z,13.30
2022-10-09T18:21:42.698Z,13.40
2022-10-09T18:24:09.258Z,13.30
2022-10-09T18:26:36.102Z,13.30
2022-10-09T18:29:02.748Z,13.20
2022-10-09T18:31:29.356Z,13.20
2022-10-09T18:33:56.840Z,13.10
2022-10-09T18:36:25.110Z,13.10
2022-10-09T18:38:53.424Z,13.10
2022-10-09T18:41:20.575Z,13.10
2022-10-09T18:43:47.891Z,13.00
2022-10-09T18:46:15.354Z,13.00
2022-10-09T18:48:42.564Z,12.90
2022-10-09T18:51:13.337Z,12.90
2022-10-09T18:53:40.511Z,12.90
2022-10-09T18:56:07.225Z,12.90
2022-10-09T18:58:34.696Z,12.90
2022-10-09T19:01:05.373Z,12.80
2022-10-09T19:03:33.887Z,12.90
2022-10-09T19:06:00.429Z,12.80
2022-10-09T19:08:27.438Z,12.80
2022-10-09T19:10:54.002Z,12.70
2022-10-09T19:13:20.692Z,12.70
2022-10-09T19:15:54.400Z,12.70
2022-10-09T19:18:21.514Z,12.70
2022-10-09T19:20:48.582Z,12.70
2022-10-09T19:23:15.742Z,12.60
2022-10-09T19:25:46.257Z,12.60
2022-10-09T19:28:13.154Z,12.60
2022-10-09T19:30:40.298Z,12.60
2022-10-09T19:33:06.874Z,12.50
2022-10-09T19:35:33.434Z,12.50
2022-10-09T19:38:02.387Z,12.50
2022-10-09T19:40:28.958Z,12.50
2022-10-09T19:42:55.578Z,12.50
2022-10-09T19:45:22.127Z,12.50
2022-10-09T19:47:53.518Z,12.50
2022-10-09T19:50:20.929Z,12.50
2022-10-09T19:52:47.526Z,12.50
2022-10-09T19:55:14.181Z,12.50
2022-10-09T19:57:40.701Z,12.40
2022-10-09T20:00:07.655Z,12.50
2022-10-09T20:02:34.249Z,12.60
2022-10-09T20:05:00.788Z,12.50
2022-10-09T20:07:27.322Z,12.50
2022-10-09T20:09:53.891Z,12.50
2022-10-09T20:12:20.467Z,12.50
2022-10-09T20:14:47.026Z,12.50
2022-10-09T20:17:13.565Z,12.40
2022-10-09T20:19:43.482Z,12.40
2022-10-09T20:22:12.171Z,12.30
2022-10-09T20:24:38.749Z,12.30
2022-10-09T20:27:05.274Z,12.30
2022-10-09T20:29:31.944Z,12.30
2022-10-09T20:31:58.523Z,12.30
2022-10-09T20:34:26.893Z,12.30
2022-10-09T20:36:53.526Z,12.20
2022-10-09T20:39:21.353Z,12.20
2022-10-09T20:41:48.419Z,12.20
2022-10-09T20:44:14.954Z,12.20
2022-10-09T20:46:41.943Z,12.10
2022-10-09T20:49:11.071Z,12.10
2022-10-09T20:51:38.435Z,12.10
2022-10-09T20:54:05.466Z,12.10
2022-10-09T20:56:32.572Z,12.10
2022-10-09T20:58:59.865Z,12.00
2022-10-09T21:01:28.164Z,12.00
2022-10-09T21:03:58.925Z,11.90
2022-10-09T21:06:26.139Z,11.90
2022-10-09T21:08:52.718Z,11.80
2022-10-09T21:11:19.776Z,11.80
2022-10-09T21:13:46.762Z,11.80
2022-10-09T21:16:15.378Z,11.80
2022-10-09T21:18:42.177Z,11.70
2022-10-09T21:21:10.396Z,11.60
2022-10-09T21:23:37.275Z,11.60
2022-10-09T21:26:03.941Z,11.60
2022-10-09T21:28:31.029Z,11.60
2022-10-09T21:30:57.658Z,11.60
2022-10-09T21:33:24.202Z,11.50
2022-10-09T21:35:51.593Z,11.50
2022-10-09T21:38:19.440Z,11.50
2022-10-09T21:40:46.460Z,11.50
2022-10-09T21:43:13.317Z,11.40
2022-10-09T21:45:40.250Z,11.40
2022-10-09T21:48:07.154Z,11.30
2022-10-09T21:50:34.071Z,11.30
2022-10-09T21:53:00.602Z,11.30
2022-10-09T21:55:27.197Z,11.20
2022-10-09T21:57:53.762Z,11.20
2022-10-09T22:00:20.404Z,11.20
2022-10-09T22:02:47.077Z,11.10
2022-10-09T22:05:13.696Z,11.10
2022-10-09T22:07:40.200Z,11.00
2022-10-09T22:10:07.401Z,11.00
2022-10-09T22:12:34.149Z,11.00
2022-10-09T22:15:00.681Z,11.00
2022-10-09T22:17:27.216Z,11.00
2022-10-09T22:19:53.722Z,10.90
2022-10-09T22:22:20.317Z,10.90
2022-10-09T22:24:46.836Z,10.90
2022-10-09T22:27:13.393Z,10.90
2022-10-09T22:29:40.001Z,10.90
2022-10-09T22:32:06.728Z,10.90
2022-10-09T22:34:33.220Z,10.90
2022-10-09T22:36:59.773Z,10.90
2022-10-09T22:39:26.466Z,10.90
2022-10-09T22:41:53.008Z,10.80
2022-10-09T22:44:19.569Z,10.80
2022-10-09T22:46:46.702Z,10.80
2022-10-09T22:49:14.443Z,10.80
2022-10-09T22:51:41.278Z,10.80
2022-10-09T22:54:07.955Z,10.70
2022-10-09T22:56:38.871Z,10.70
2022-10-09T22:59:06.738Z,10.70
2022-10-09T23:01:38.495Z,10.60
2022-10-09T23:04:06.282Z,10.60
2022-10-09T23:06:32.863Z,10.60
2022-10-09T23:09:00.201Z,10.60
2022-10-09T23:11:26.805Z,10.60
2022-10-09T23:13:58.315Z,10.60
2022-10-09T23:16:25.442Z,10.60
2022-10-09T23:18:51.996Z,10.50
2022-10-09T23:21:19.737Z,10.50
2022-10-09T23:23:46.784Z,10.50
2022-10-09T23:26:14.715Z,10.50
2022-10-09T23:28:41.407Z,10.50
2022-10-09T23:31:12.559Z,10.50
2022-10-09T23:33:40.011Z,10.40
2022-10-09T23:36:07.150Z,10.40
2022-10-09T23:38:34.125Z,10.40
2022-10-09T23:41:01.850Z,10.40
2022-10-09T23:43:29.387Z,10.40
2022-10-09T23:45:56.661Z,10.40
2022-10-09T23:48:23.202Z,10.30
2022-10-09T23:50:50.126Z,10.30
2022-10-09T23:53:16.842Z,10.20
2022-10-09T23:55:44.197Z,10.20
2022-10-09T23:58:10.917Z,10.10
